DAAE

Details ICAO DAAE (BJA)
Name SOUMMAM
Region Algeria
Timezone Africa/Algiers (UTC+1.0)
Plans Departing 50
Arriving 54
Stats Elevation 20 ft / 6 m (AMSL)
Location 36.711805° 5.069862°
Runways 1
Magnetic Variation 1.489° E
Sunrise 2018-05-24 04:27:42 UTC / 2018-05-24 05:27:42 Local
Sunset 2018-05-24 18:48:17 UTC / 2018-05-24 19:48:17 Local
Advertisement - Login to hide

Runways

ID Width Length Bearing (true) Bearing (mag) Surface Threshold Offset Overrun Length
08 148 ft / 45 m 7,831 ft / 2,387 m 80.31° 78.82° Asphalt 0 ft / 0 m 204 ft / 62 m
26 148 ft / 45 m 7,831 ft / 2,387 m 260.32° 258.83° Asphalt 0 ft / 0 m 113 ft / 34 m

Approach Navaids

Runway Type Ident Frequency Range Bearing (true) Bearing (mag) Slope Elevation
26 Localiser BJ 110.50 MHz 18 nm / 33 km 261.39° 259.90° - 20 ft / 6 m (AMSL)
26 DME BJ 110.50 MHz 18 nm / 33 km - - - 20 ft / 6 m (AMSL)

Map

Weather


0- 5 10 15 20 25 30 35+ Temperature / ° C

Clouds and Precipitation
Forecast for 2018-05-24 18:00 UTC. Updated an hour ago

Ground ~20,000 ft ~40,000 ft Winds

METAR

DAAE 241800Z 07005KT 9999 FEW020 23/19 Q1012

TAF

TAF DAAE 241700Z 2418/2518 02012KT 9999 FEW030 BECMG 2420/2422 18012KT BECMG 2507/2509 35010KT

Frequencies

Tower 118.90 MHz BEJAIA TWR
Tower 119.70 MHz BEJAIA TWR
Warning: Do not use this data for real-world aviation or navigation. No guarantee of current accuracy is given.